Time;durP1;ratioP1;P1;durP2;ratioP2;P2;SDS_P1;SDS_P2;PMS_P1;PMS_P2;Temp;Humidity;BMP_temperature;BMP_pressure;BME280_temperature;BME280_humidity;BME280_pressure;Samples;Min_cycle;Max_cycle;Signal;HPM_P1;HPM_P2
2023/07/14 00:02:16;;;;;;;4.00;3.13;;;17.50;99.90;;;;;;5023602;28;20033;-63
2023/07/14 00:04:48;;;;;;;4.63;3.30;;;17.40;99.90;;;;;;5019783;28;20046;-63
2023/07/14 00:07:20;;;;;;;6.95;3.20;;;17.50;99.90;;;;;;5018599;28;20515;-61
2023/07/14 00:09:52;;;;;;;4.18;2.97;;;17.50;99.90;;;;;;4996457;28;20137;-64
2023/07/14 00:12:23;;;;;;;3.67;3.30;;;17.40;99.90;;;;;;5027287;28;20125;-64
2023/07/14 00:14:50;;;;;;;3.95;3.15;;;17.40;99.90;;;;;;5004036;28;20053;-64
2023/07/14 00:17:22;;;;;;;3.38;3.08;;;17.40;99.90;;;;;;5006748;28;20045;-63
2023/07/14 00:19:54;;;;;;;7.70;2.80;;;17.20;99.90;;;;;;5023862;28;20042;-64
2023/07/14 00:22:26;;;;;;;3.55;2.95;;;17.20;99.90;;;;;;5019526;28;20557;-64
2023/07/14 00:24:58;;;;;;;9.60;3.40;;;17.00;99.90;;;;;;5024884;28;20120;-63
2023/07/14 00:27:25;;;;;;;4.18;2.83;;;17.00;99.90;;;;;;5022522;28;20096;-63
2023/07/14 00:29:59;;;;;;;4.45;2.80;;;17.00;99.90;;;;;;5010919;28;20041;-64
2023/07/14 00:32:31;;;;;;;4.03;3.42;;;16.90;99.90;;;;;;4997929;28;20087;-63
2023/07/14 00:34:58;;;;;;;4.53;2.72;;;16.80;99.90;;;;;;5025665;28;20063;-64
2023/07/14 00:37:29;;;;;;;5.45;2.90;;;16.80;99.90;;;;;;4982974;28;20041;-63
2023/07/14 00:40:01;;;;;;;5.00;3.13;;;16.70;99.90;;;;;;5000566;28;20042;-63
2023/07/14 00:42:34;;;;;;;4.05;3.08;;;16.60;99.90;;;;;;5023335;28;20042;-64
2023/07/14 00:45:15;;;;;;;4.38;2.88;;;16.50;99.90;;;;;;5010498;28;20049;-63
2023/07/14 00:47:42;;;;;;;5.88;2.70;;;16.40;99.90;;;;;;4999609;28;20489;-63
2023/07/14 00:50:28;;;;;;;5.43;3.00;;;16.40;99.90;;;;;;5012574;28;20070;-63
2023/07/14 00:53:05;;;;;;;5.32;2.80;;;16.40;99.90;;;;;;5005600;28;20053;-64
2023/07/14 00:55:48;;;;;;;7.85;4.65;;;16.30;99.90;;;;;;5020504;28;20037;-63
2023/07/14 00:58:26;;;;;;;3.33;2.50;;;16.30;99.90;;;;;;5000342;28;20048;-63
2023/07/14 01:01:08;;;;;;;3.30;2.90;;;16.30;99.90;;;;;;5015743;28;20041;-64
2023/07/14 01:03:40;;;;;;;3.90;2.80;;;16.30;99.90;;;;;;5006030;28;20049;-63
2023/07/14 01:06:16;;;;;;;3.47;2.85;;;16.30;99.90;;;;;;4995230;28;20420;-64
2023/07/14 01:08:48;;;;;;;3.75;3.10;;;16.10;99.90;;;;;;5026294;28;20048;-64
2023/07/14 01:11:19;;;;;;;5.95;3.13;;;16.10;99.90;;;;;;5001698;28;20098;-64
2023/07/14 01:13:46;;;;;;;7.80;3.50;;;15.90;99.90;;;;;;5002121;28;20125;-63
2023/07/14 01:16:18;;;;;;;9.43;3.22;;;15.80;99.90;;;;;;4989495;28;20121;-64
2023/07/14 01:18:50;;;;;;;4.72;3.10;;;15.80;99.90;;;;;;4973872;28;20068;-64
2023/07/14 01:21:21;;;;;;;11.48;3.63;;;15.70;99.90;;;;;;4964355;28;20042;-64
2023/07/14 01:23:58;;;;;;;5.40;3.58;;;15.70;99.90;;;;;;4993943;28;20046;-64
2023/07/14 01:27:04;;;;;;;3.83;3.15;;;15.70;99.90;;;;;;4982667;28;20038;-64
2023/07/14 01:29:39;;;;;;;5.22;3.20;;;15.60;99.90;;;;;;4993320;28;20132;-64
2023/07/14 01:32:16;;;;;;;7.70;3.50;;;15.60;99.90;;;;;;4999435;28;20044;-64
2023/07/14 01:34:48;;;;;;;5.13;3.30;;;15.50;99.90;;;;;;4989098;28;20050;-64
2023/07/14 01:37:20;;;;;;;6.90;3.60;;;15.50;99.90;;;;;;4982506;28;20417;-62
2023/07/14 01:39:53;;;;;;;3.95;2.47;;;15.40;99.90;;;;;;4992379;28;20046;-64
2023/07/14 01:42:26;;;;;;;4.45;3.22;;;15.40;99.90;;;;;;4989775;28;20137;-64
2023/07/14 01:44:59;;;;;;;4.25;3.38;;;15.40;99.90;;;;;;4995630;28;20053;-64
2023/07/14 01:47:28;;;;;;;7.65;3.10;;;15.40;99.90;;;;;;5003167;28;20204;-64
2023/07/14 01:50:02;;;;;;;5.97;3.42;;;15.40;99.90;;;;;;4997391;28;20041;-64
2023/07/14 01:52:34;;;;;;;3.83;3.53;;;15.50;99.90;;;;;;4983208;28;20053;-64
2023/07/14 01:55:12;;;;;;;5.90;3.42;;;15.50;99.90;;;;;;4997894;28;20050;-64
2023/07/14 01:57:45;;;;;;;4.45;3.10;;;15.60;99.90;;;;;;5002477;28;20042;-64
2023/07/14 02:00:18;;;;;;;4.63;3.00;;;15.50;99.90;;;;;;4986560;28;20417;-64
2023/07/14 02:02:52;;;;;;;5.40;3.33;;;15.60;99.90;;;;;;4987833;28;20041;-64
2023/07/14 02:05:36;;;;;;;5.55;3.22;;;15.50;99.90;;;;;;4989409;28;20049;-64
2023/07/14 02:08:17;;;;;;;4.45;3.10;;;15.50;99.90;;;;;;4993999;28;20050;-64
2023/07/14 02:10:49;;;;;;;4.65;3.38;;;15.50;99.90;;;;;;4978940;28;20050;-64
2023/07/14 02:13:22;;;;;;;3.92;3.40;;;15.50;99.90;;;;;;4983498;28;20042;-64
2023/07/14 02:15:55;;;;;;;5.90;3.35;;;15.50;99.90;;;;;;4980958;28;20049;-64
2023/07/14 02:18:28;;;;;;;3.55;3.22;;;15.50;99.90;;;;;;4998519;28;20050;-64
2023/07/14 02:21:00;;;;;;;4.03;3.15;;;15.60;99.90;;;;;;5004206;28;20133;-64
2023/07/14 02:23:32;;;;;;;4.03;3.63;;;15.60;99.90;;;;;;4991969;28;20045;-64
2023/07/14 02:26:27;;;;;;;4.75;3.95;;;15.60;99.90;;;;;;4991633;28;20046;-64
2023/07/14 02:28:59;;;;;;;4.50;3.65;;;15.60;99.90;;;;;;4994929;28;20134;-64
2023/07/14 02:31:44;;;;;;;4.18;3.53;;;15.60;99.90;;;;;;4976534;28;20428;-64
2023/07/14 02:34:14;;;;;;;3.92;3.33;;;15.50;99.90;;;;;;4996245;28;20061;-64
2023/07/14 02:37:39;;;;;;;5.00;3.67;;;15.50;99.90;;;;;;4990830;28;20041;-64
2023/07/14 02:40:12;;;;;;;4.78;3.30;;;15.50;99.90;;;;;;4962722;28;20061;-64
2023/07/14 02:42:44;;;;;;;4.10;3.08;;;15.50;99.90;;;;;;4985588;28;20468;-64
2023/07/14 02:45:18;;;;;;;4.63;3.13;;;15.50;99.90;;;;;;4981995;28;20046;-64
2023/07/14 02:47:53;;;;;;;5.22;3.28;;;15.50;99.90;;;;;;4991809;28;20052;-64
2023/07/14 02:50:25;;;;;;;4.60;3.47;;;15.50;99.90;;;;;;4984337;28;20064;-64
2023/07/14 02:52:53;;;;;;;5.22;3.67;;;15.50;99.90;;;;;;5002650;28;20049;-64
2023/07/14 02:55:24;;;;;;;4.90;3.92;;;15.40;99.90;;;;;;4989452;28;20050;-64
2023/07/14 02:57:56;;;;;;;5.07;3.67;;;15.30;99.90;;;;;;4980580;28;20065;-64
2023/07/14 03:00:28;;;;;;;3.38;3.08;;;15.30;99.90;;;;;;4989944;28;20444;-64
2023/07/14 03:03:01;;;;;;;4.45;3.17;;;15.30;99.90;;;;;;4998477;28;20040;-64
2023/07/14 03:05:32;;;;;;;6.05;3.33;;;15.30;99.90;;;;;;4978127;28;20623;-63
2023/07/14 03:08:07;;;;;;;4.82;3.53;;;15.40;99.90;;;;;;4995169;28;20533;-64
2023/07/14 03:10:39;;;;;;;4.93;3.47;;;15.40;99.90;;;;;;4981503;28;20512;-63
2023/07/14 03:13:12;;;;;;;4.60;3.50;;;15.30;99.90;;;;;;4991923;28;20049;-64
2023/07/14 03:15:44;;;;;;;3.45;3.15;;;15.30;99.90;;;;;;4996647;28;20046;-64
2023/07/14 03:18:16;;;;;;;4.88;3.30;;;15.20;99.90;;;;;;4999002;28;20039;-64
2023/07/14 03:20:55;;;;;;;6.10;3.38;;;15.20;99.90;;;;;;4986583;28;20046;-64
2023/07/14 03:23:27;;;;;;;5.18;3.20;;;15.20;99.90;;;;;;4984485;28;20061;-64
2023/07/14 03:26:05;;;;;;;3.85;3.30;;;15.20;99.90;;;;;;5005404;28;20065;-64
2023/07/14 03:28:38;;;;;;;3.83;3.15;;;15.20;99.90;;;;;;5009297;28;20129;-64
2023/07/14 03:31:10;;;;;;;4.17;3.27;;;15.10;99.90;;;;;;4977782;28;20158;-64
2023/07/14 03:33:43;;;;;;;3.70;3.35;;;15.10;99.90;;;;;;4993050;28;20308;-64
2023/07/14 03:36:15;;;;;;;5.53;3.28;;;15.10;99.90;;;;;;4978656;28;20045;-64
2023/07/14 03:39:19;;;;;;;4.63;3.55;;;15.10;99.90;;;;;;5008097;28;20074;-63
2023/07/14 03:41:52;;;;;;;3.45;3.15;;;15.20;99.90;;;;;;4982889;28;20101;-64
2023/07/14 03:44:24;;;;;;;3.65;3.35;;;15.10;99.90;;;;;;5005835;28;20828;-64
2023/07/14 03:46:56;;;;;;;6.40;3.40;;;15.10;99.90;;;;;;5000564;28;20108;-64
2023/07/14 03:49:23;;;;;;;5.20;3.80;;;15.00;99.90;;;;;;4998520;28;20129;-64
2023/07/14 03:51:55;;;;;;;7.60;3.53;;;15.00;99.90;;;;;;4996409;28;20046;-64
2023/07/14 03:54:27;;;;;;;3.85;3.45;;;15.00;99.90;;;;;;5001148;28;20048;-63
2023/07/14 03:56:59;;;;;;;4.18;2.97;;;15.00;99.90;;;;;;4991875;28;20133;-64
2023/07/14 03:59:31;;;;;;;7.03;3.78;;;15.00;99.90;;;;;;4991032;28;20425;-64
2023/07/14 04:02:03;;;;;;;3.78;3.05;;;15.10;99.90;;;;;;5002679;28;20061;-68
2023/07/14 04:04:35;;;;;;;3.97;3.10;;;15.10;99.90;;;;;;4986231;28;20552;-65
2023/07/14 04:07:07;;;;;;;4.50;3.40;;;15.00;99.90;;;;;;4984289;28;20042;-64
2023/07/14 04:09:39;;;;;;;4.47;3.10;;;14.90;99.90;;;;;;5002367;28;20092;-64
2023/07/14 04:12:11;;;;;;;11.60;4.57;;;14.90;99.90;;;;;;4993725;28;20057;-64
2023/07/14 04:14:43;;;;;;;4.22;3.40;;;14.90;99.90;;;;;;4988373;28;20535;-64
2023/07/14 04:17:15;;;;;;;3.83;3.17;;;14.90;99.90;;;;;;4996361;28;20050;-64
2023/07/14 04:19:42;;;;;;;3.50;3.20;;;14.90;99.90;;;;;;5009310;28;20109;-64
2023/07/14 04:22:14;;;;;;;3.35;3.05;;;15.00;99.90;;;;;;4999514;28;20049;-63
2023/07/14 04:24:47;;;;;;;4.60;2.92;;;15.00;99.90;;;;;;4991052;28;20043;-64
2023/07/14 04:27:14;;;;;;;4.93;3.55;;;14.90;99.90;;;;;;5003211;28;20587;-64
2023/07/14 04:29:46;;;;;;;4.70;3.50;;;14.90;99.90;;;;;;5009323;28;20061;-64
2023/07/14 04:32:18;;;;;;;5.10;3.50;;;14.90;99.90;;;;;;4990177;28;20663;-64
2023/07/14 04:34:49;;;;;;;4.57;3.60;;;15.00;99.90;;;;;;5006605;28;20435;-64
2023/07/14 04:37:21;;;;;;;5.00;3.60;;;15.00;99.90;;;;;;4987443;28;20053;-64
2023/07/14 04:39:53;;;;;;;4.10;3.60;;;15.00;99.90;;;;;;4985766;28;20420;-64
2023/07/14 04:42:25;;;;;;;5.38;3.53;;;15.00;99.90;;;;;;4990115;28;20031;-64
2023/07/14 04:44:56;;;;;;;4.40;3.72;;;15.00;99.90;;;;;;4983459;28;20062;-64
2023/07/14 04:47:28;;;;;;;3.83;3.40;;;15.10;99.90;;;;;;5003188;28;20073;-64
2023/07/14 04:50:00;;;;;;;5.70;3.95;;;15.10;99.90;;;;;;5005165;28;20038;-64
2023/07/14 04:52:34;;;;;;;3.50;3.17;;;15.10;99.90;;;;;;5004496;28;20563;-64
2023/07/14 04:55:06;;;;;;;5.68;3.85;;;15.10;99.90;;;;;;5001652;28;20045;-64
2023/07/14 04:57:33;;;;;;;3.55;3.25;;;15.20;99.90;;;;;;4985369;28;20035;-64
2023/07/14 05:00:00;;;;;;;5.75;3.60;;;15.20;99.90;;;;;;4994279;28;20085;-64
2023/07/14 05:02:32;;;;;;;4.95;3.45;;;15.20;99.90;;;;;;4998227;28;20124;-64
2023/07/14 05:05:18;;;;;;;10.00;3.95;;;15.20;99.90;;;;;;5009968;28;20504;-64
2023/07/14 05:07:50;;;;;;;4.10;3.70;;;15.30;99.90;;;;;;5005341;28;20048;-64
2023/07/14 05:10:24;;;;;;;4.55;3.67;;;15.30;99.90;;;;;;5005146;28;20042;-64
2023/07/14 05:12:53;;;;;;;4.35;3.95;;;15.30;99.90;;;;;;5002934;28;20052;-64
2023/07/14 05:15:26;;;;;;;6.80;4.60;;;15.40;99.90;;;;;;4999304;28;20098;-64
2023/07/14 05:17:58;;;;;;;6.53;4.50;;;15.50;99.90;;;;;;5002215;28;20049;-64
2023/07/14 05:20:30;;;;;;;4.88;3.67;;;15.50;99.90;;;;;;5003722;28;20034;-64
2023/07/14 05:22:56;;;;;;;4.43;4.07;;;15.50;99.90;;;;;;4975761;28;20516;-62
2023/07/14 05:25:23;;;;;;;5.95;3.92;;;15.60;99.90;;;;;;5008581;28;20061;-64
2023/07/14 05:27:55;;;;;;;7.05;5.65;;;15.70;99.90;;;;;;5000584;28;20045;-64
2023/07/14 05:30:27;;;;;;;6.50;5.60;;;15.70;99.90;;;;;;5002905;28;20543;-64
2023/07/14 05:32:59;;;;;;;6.53;5.78;;;15.80;99.90;;;;;;5003701;28;20046;-64
2023/07/14 05:35:31;;;;;;;9.82;8.25;;;15.90;99.90;;;;;;4984918;28;20660;-64
2023/07/14 05:38:03;;;;;;;6.00;5.45;;;15.90;99.90;;;;;;4999990;28;20136;-64
2023/07/14 05:40:35;;;;;;;6.75;5.45;;;15.90;99.90;;;;;;5004846;28;20038;-64
2023/07/14 05:43:07;;;;;;;8.52;5.28;;;16.00;99.90;;;;;;4966714;28;20595;-64
2023/07/14 05:45:39;;;;;;;6.75;4.88;;;16.00;99.90;;;;;;4975685;28;20046;-64
2023/07/14 05:48:12;;;;;;;12.05;5.97;;;16.00;99.90;;;;;;4990134;28;20109;-64
2023/07/14 05:50:45;;;;;;;7.43;5.65;;;16.00;99.90;;;;;;4994920;28;20046;-64
2023/07/14 05:53:20;;;;;;;;;;;16.10;99.90;;;;;;4992189;28;20046;-64
2023/07/14 05:55:52;;;;;;;8.35;5.18;;;16.10;99.90;;;;;;4998220;28;20028;-65
2023/07/14 05:58:24;;;;;;;6.25;5.10;;;16.20;99.90;;;;;;4999986;28;20038;-64
2023/07/14 06:00:56;;;;;;;5.60;4.63;;;16.20;99.90;;;;;;4998898;28;20108;-64
2023/07/14 06:03:29;;;;;;;8.25;5.28;;;16.20;99.90;;;;;;4982109;28;20424;-64
2023/07/14 06:06:04;;;;;;;6.63;6.03;;;16.30;99.90;;;;;;5000400;28;20121;-64
2023/07/14 06:08:36;;;;;;;7.05;5.00;;;16.30;99.90;;;;;;4995507;28;20082;-64
2023/07/14 06:11:05;;;;;;;7.03;5.38;;;16.30;99.90;;;;;;4996375;28;20153;-64
2023/07/14 06:13:37;;;;;;;5.72;5.22;;;16.40;99.90;;;;;;4994676;28;20156;-65
2023/07/14 06:16:04;;;;;;;7.57;5.93;;;16.50;99.90;;;;;;4993447;28;20108;-64
2023/07/14 06:18:36;;;;;;;6.18;5.45;;;16.50;99.90;;;;;;4971748;28;20449;-64
2023/07/14 06:21:10;;;;;;;9.60;4.78;;;16.60;99.90;;;;;;4997221;28;20149;-64
2023/07/14 06:23:38;;;;;;;6.85;6.22;;;16.60;99.90;;;;;;5000910;28;20120;-65
2023/07/14 06:26:05;;;;;;;6.18;5.43;;;16.70;99.90;;;;;;4998805;28;20037;-65
2023/07/14 06:28:38;;;;;;;6.05;5.20;;;16.70;99.90;;;;;;4996276;28;20429;-64
2023/07/14 06:31:13;;;;;;;6.22;5.63;;;16.80;99.90;;;;;;4980617;28;20046;-64
2023/07/14 06:33:46;;;;;;;6.82;5.90;;;16.90;99.90;;;;;;4991327;28;20046;-65
2023/07/14 06:36:18;;;;;;;6.15;5.38;;;17.00;99.90;;;;;;4993383;28;20490;-64
2023/07/14 06:38:50;;;;;;;5.95;5.28;;;17.10;99.90;;;;;;5005161;28;20038;-64
2023/07/14 06:41:22;;;;;;;7.45;5.70;;;17.10;99.90;;;;;;4979710;28;20416;-64
2023/07/14 06:43:48;;;;;;;8.30;6.47;;;17.20;99.90;;;;;;4999779;28;20039;-64
2023/07/14 06:46:20;;;;;;;7.22;6.50;;;17.30;99.90;;;;;;5000973;28;20056;-64
2023/07/14 06:48:52;;;;;;;7.38;6.25;;;17.40;99.90;;;;;;5003554;28;20065;-64
2023/07/14 06:51:25;;;;;;;8.05;6.82;;;17.50;99.90;;;;;;4987481;28;20129;-64
2023/07/14 06:53:56;;;;;;;8.18;6.38;;;17.50;99.90;;;;;;5003890;28;20550;-65
2023/07/14 06:56:28;;;;;;;7.35;6.28;;;17.60;99.90;;;;;;4981597;28;20043;-64
2023/07/14 06:58:55;;;;;;;9.18;6.93;;;17.70;99.90;;;;;;4995729;28;20046;-64
2023/07/14 07:01:28;;;;;;;8.20;6.30;;;17.80;99.90;;;;;;4988317;28;20049;-64
2023/07/14 07:04:00;;;;;;;6.82;5.85;;;17.90;99.90;;;;;;4997777;28;20042;-64
2023/07/14 07:06:32;;;;;;;8.85;6.03;;;18.00;99.90;;;;;;4981903;28;20130;-65
2023/07/14 07:09:04;;;;;;;7.50;5.80;;;18.00;99.90;;;;;;4998661;28;20088;-64
2023/07/14 07:11:36;;;;;;;8.27;6.07;;;18.10;99.90;;;;;;4995971;28;20056;-65
2023/07/14 07:14:03;;;;;;;7.53;5.38;;;18.20;99.90;;;;;;5000402;28;20045;-65
2023/07/14 07:16:36;;;;;;;9.38;5.82;;;18.30;99.90;;;;;;5008586;28;20077;-65
2023/07/14 07:19:09;;;;;;;6.00;5.40;;;18.50;99.90;;;;;;5003940;28;20061;-64
2023/07/14 07:21:37;;;;;;;7.85;5.35;;;18.60;99.90;;;;;;4995158;28;20038;-64
2023/07/14 07:24:09;;;;;;;7.93;5.15;;;18.70;99.90;;;;;;4999837;28;20462;-64
2023/07/14 07:26:41;;;;;;;6.05;5.10;;;18.80;99.90;;;;;;4998427;28;20423;-64
2023/07/14 07:29:14;;;;;;;6.57;4.53;;;19.00;99.90;;;;;;4997005;28;20423;-64
2023/07/14 07:31:45;;;;;;;8.18;4.82;;;19.10;99.90;;;;;;5000176;28;20042;-64
2023/07/14 07:34:17;;;;;;;6.10;5.13;;;19.30;99.90;;;;;;4997510;28;20044;-64
2023/07/14 07:36:49;;;;;;;7.88;5.18;;;19.40;99.90;;;;;;5006328;28;20542;-65
2023/07/14 07:39:16;;;;;;;7.75;3.92;;;19.60;99.90;;;;;;5008369;28;20042;-64
2023/07/14 07:41:48;;;;;;;5.68;4.80;;;19.70;99.90;;;;;;4989405;28;20129;-64
2023/07/14 07:44:20;;;;;;;6.32;4.03;;;19.90;99.90;;;;;;4995156;28;20037;-64
2023/07/14 07:46:51;;;;;;;6.40;3.97;;;20.00;99.90;;;;;;4993671;28;20386;-64
2023/07/14 07:49:23;;;;;;;6.50;3.95;;;20.20;99.90;;;;;;5001177;28;20640;-64
2023/07/14 07:51:55;;;;;;;7.90;4.15;;;20.40;99.90;;;;;;4999055;28;20049;-65
2023/07/14 07:54:26;;;;;;;5.35;3.70;;;20.60;99.90;;;;;;4998811;28;20053;-64
2023/07/14 07:56:58;;;;;;;4.38;3.95;;;20.80;99.90;;;;;;4988712;28;20053;-65
2023/07/14 07:59:30;;;;;;;7.03;3.90;;;21.00;99.90;;;;;;4996092;28;20049;-65
2023/07/14 08:02:02;;;;;;;7.03;3.80;;;21.10;99.90;;;;;;4997708;28;20042;-65
2023/07/14 08:04:34;;;;;;;8.55;4.50;;;21.20;99.90;;;;;;4980486;28;20053;-65
2023/07/14 08:07:11;;;;;;;5.15;3.65;;;21.20;99.90;;;;;;5000183;28;20046;-64
2023/07/14 08:09:38;;;;;;;6.47;4.20;;;21.20;99.90;;;;;;5006057;28;20050;-65
2023/07/14 08:12:10;;;;;;;5.68;4.03;;;21.30;99.90;;;;;;5001262;28;20045;-65
2023/07/14 08:14:55;;;;;;;8.30;3.55;;;21.40;99.90;;;;;;5002617;28;20046;-65
2023/07/14 08:17:31;;;;;;;7.38;3.55;;;21.50;99.90;;;;;;4987942;28;20050;-66
2023/07/14 08:20:04;;;;;;;5.90;3.55;;;21.70;99.90;;;;;;4992820;28;20048;-65
2023/07/14 08:22:35;;;;;;;5.38;3.33;;;21.70;99.90;;;;;;4986058;28;20038;-65
2023/07/14 08:25:09;;;;;;;5.90;4.10;;;21.80;99.90;;;;;;5003513;28;20038;-65
2023/07/14 08:27:41;;;;;;;;;;;21.80;99.90;;;;;;5004470;28;20038;-65
2023/07/14 08:30:13;;;;;;;5.13;3.53;;;21.90;99.90;;;;;;5001526;28;19926;-65
2023/07/14 08:32:44;;;;;;;7.43;3.53;;;22.00;99.90;;;;;;5002332;28;20064;-65
2023/07/14 08:35:18;;;;;;;5.25;3.63;;;22.10;99.90;;;;;;5001506;28;20531;-65
2023/07/14 08:37:50;;;;;;;7.15;3.55;;;22.20;99.90;;;;;;5001747;28;20038;-65
2023/07/14 08:40:29;;;;;;;2.83;2.47;;;22.30;99.90;;;;;;5002778;28;20042;-65
2023/07/14 08:43:27;;;;;;;4.57;3.10;;;22.40;99.90;;;;;;5004921;28;20058;-66
2023/07/14 08:46:06;;;;;;;4.32;3.00;;;22.50;99.90;;;;;;5000277;28;20535;-65
2023/07/14 08:48:45;;;;;;;5.05;2.80;;;22.70;99.90;;;;;;5002517;28;20046;-66
2023/07/14 08:51:26;;;;;;;7.00;2.70;;;22.70;99.90;;;;;;5004865;28;20039;-65
2023/07/14 08:54:04;;;;;;;5.15;2.88;;;22.80;99.90;;;;;;4985276;28;20034;-66
2023/07/14 08:56:38;;;;;;;4.85;2.90;;;23.00;99.90;;;;;;5002655;28;20415;-65
2023/07/14 08:59:17;;;;;;;3.40;2.55;;;23.10;99.90;;;;;;5006316;28;20056;-65
2023/07/14 09:01:54;;;;;;;6.03;2.90;;;23.20;99.90;;;;;;5002817;28;20046;-65
2023/07/14 09:04:31;;;;;;;4.60;2.45;;;23.30;99.90;;;;;;5006061;28;20042;-66
2023/07/14 09:07:07;;;;;;;4.57;2.70;;;23.40;99.90;;;;;;4994875;28;20433;-66
2023/07/14 09:09:39;;;;;;;4.10;2.50;;;23.50;99.90;;;;;;4997872;28;20132;-65
2023/07/14 09:12:37;;;;;;;4.53;2.72;;;23.50;99.90;;;;;;4982793;28;20056;-65
2023/07/14 09:15:16;;;;;;;7.28;3.25;;;23.60;99.90;;;;;;4989904;28;20050;-65
2023/07/14 09:18:20;;;;;;;3.90;2.40;;;23.80;99.90;;;;;;5003233;28;20056;-66
2023/07/14 09:21:09;;;;;;;4.72;3.00;;;23.90;99.90;;;;;;4980764;28;20587;-65
2023/07/14 09:24:06;;;;;;;3.78;2.40;;;24.10;99.90;;;;;;4985233;28;20084;-65
2023/07/14 09:26:56;;;;;;;5.25;2.33;;;24.20;99.90;;;;;;4999527;28;20088;-65
2023/07/14 09:29:53;;;;;;;5.00;2.17;;;24.50;99.90;;;;;;4999150;28;20103;-66
2023/07/14 09:32:34;;;;;;;3.67;2.10;;;24.60;99.90;;;;;;4970547;28;20630;-66
2023/07/14 09:35:18;;;;;;;6.75;2.63;;;24.60;99.90;;;;;;4995189;28;20054;-65
2023/07/14 09:37:59;;;;;;;;;;;24.70;99.90;;;;;;5002939;28;20824;-65
2023/07/14 09:40:34;;;;;;;3.95;2.22;;;24.90;99.90;;;;;;4994993;28;19925;-65
2023/07/14 09:43:03;;;;;;;3.38;2.00;;;24.90;99.90;;;;;;5003980;28;20089;-65
2023/07/14 09:45:38;;;;;;;2.72;2.13;;;25.00;99.90;;;;;;5003761;28;20065;-65
2023/07/14 09:48:18;;;;;;;3.22;1.98;;;24.90;99.90;;;;;;4992307;28;20052;-65
2023/07/14 09:51:02;;;;;;;2.80;1.98;;;24.80;99.90;;;;;;4990921;28;20048;-66
2023/07/14 09:53:31;;;;;;;4.15;1.70;;;24.90;99.90;;;;;;4978249;28;20076;-65
2023/07/14 09:56:10;;;;;;;3.88;1.88;;;25.10;99.90;;;;;;4979691;28;20132;-65
2023/07/14 09:58:58;;;;;;;2.83;2.20;;;25.20;99.90;;;;;;5004544;28;20426;-66
2023/07/14 10:01:30;;;;;;;3.10;2.20;;;25.20;99.90;;;;;;5003793;28;20042;-65
2023/07/14 10:04:14;;;;;;;3.85;1.80;;;25.40;99.90;;;;;;5001127;28;20034;-66
2023/07/14 10:06:49;;;;;;;3.78;2.00;;;25.50;99.90;;;;;;5000786;28;20068;-65
2023/07/14 10:09:23;;;;;;;5.22;2.08;;;25.60;99.90;;;;;;4982224;28;20593;-65
2023/07/14 10:11:52;;;;;;;3.92;2.00;;;25.60;99.90;;;;;;4991972;28;20046;-65
2023/07/14 10:14:26;;;;;;;2.20;1.90;;;25.60;99.90;;;;;;5004838;28;20042;-65
2023/07/14 10:16:58;;;;;;;2.70;2.45;;;25.60;99.90;;;;;;4977421;28;20034;-65
2023/07/14 10:19:38;;;;;;;2.63;1.90;;;25.50;99.90;;;;;;4998340;28;20516;-65
2023/07/14 10:22:13;;;;;;;2.45;1.80;;;25.60;99.90;;;;;;5001124;28;20046;-65
2023/07/14 10:24:58;;;;;;;1.85;1.42;;;25.70;99.90;;;;;;5001930;28;20045;-66
2023/07/14 10:27:31;;;;;;;2.25;1.90;;;25.70;99.90;;;;;;4987405;28;20147;-65
2023/07/14 10:30:11;;;;;;;;;;;25.60;98.70;;;;;;5002323;28;20628;-66
2023/07/14 10:32:46;;;;;;;2.75;2.00;;;25.70;99.50;;;;;;5003554;28;19925;-66
2023/07/14 10:35:25;;;;;;;3.42;2.22;;;25.90;99.90;;;;;;4973158;28;20496;-66
2023/07/14 10:38:28;;;;;;;4.40;2.58;;;26.00;99.90;;;;;;5003822;28;20205;-66
2023/07/14 10:41:02;;;;;;;4.05;2.30;;;26.10;99.90;;;;;;4994016;28;20039;-66
2023/07/14 10:43:52;;;;;;;2.17;1.75;;;26.20;99.90;;;;;;4988781;28;20141;-66
2023/07/14 10:46:35;;;;;;;3.15;2.10;;;26.40;99.90;;;;;;5002402;28;20038;-67
2023/07/14 10:49:20;;;;;;;3.25;2.00;;;26.40;99.90;;;;;;5004390;28;20137;-66
2023/07/14 10:52:03;;;;;;;2.65;1.80;;;26.50;99.90;;;;;;4999871;28;20046;-66
2023/07/14 10:54:42;;;;;;;2.38;1.80;;;26.70;99.80;;;;;;4995006;28;20056;-66
2023/07/14 10:57:23;;;;;;;2.40;2.15;;;26.80;99.90;;;;;;5002137;28;20543;-66
2023/07/14 10:59:57;;;;;;;3.15;1.98;;;26.90;99.90;;;;;;4997923;28;20038;-66
2023/07/14 11:02:41;;;;;;;3.90;2.10;;;26.90;99.90;;;;;;4976435;28;20054;-66
2023/07/14 11:05:19;;;;;;;3.28;2.28;;;27.00;99.90;;;;;;4986942;28;20042;-66
2023/07/14 11:07:52;;;;;;;2.92;1.73;;;27.00;99.90;;;;;;5002951;28;20134;-65
2023/07/14 11:10:24;;;;;;;3.78;2.10;;;27.10;99.90;;;;;;5004217;28;20042;-65
2023/07/14 11:13:22;;;;;;;4.32;1.90;;;27.10;99.90;;;;;;5001198;28;20034;-65
2023/07/14 11:16:05;;;;;;;2.30;1.75;;;27.20;99.90;;;;;;5000400;28;20100;-66
2023/07/14 11:18:44;;;;;;;2.78;1.60;;;27.20;99.90;;;;;;5000076;28;20127;-66
2023/07/14 11:21:23;;;;;;;2.70;1.90;;;27.30;98.50;;;;;;5004534;28;20044;-66
2023/07/14 11:23:56;;;;;;;2.42;1.95;;;27.30;98.40;;;;;;4996224;28;20077;-65
2023/07/14 11:27:09;;;;;;;2.03;1.70;;;27.10;96.30;;;;;;4994643;28;20068;-65
2023/07/14 11:30:15;;;;;;;3.22;2.05;;;27.00;97.80;;;;;;4977333;28;20145;-65
2023/07/14 11:33:04;;;;;;;3.08;2.10;;;27.00;98.60;;;;;;4946269;28;20053;-65
2023/07/14 11:35:49;;;;;;;3.08;1.90;;;27.00;98.70;;;;;;5004534;28;20457;-66
2023/07/14 11:38:38;;;;;;;2.60;2.00;;;27.00;99.40;;;;;;5006030;28;20042;-65
2023/07/14 11:41:11;;;;;;;3.70;2.05;;;27.10;97.60;;;;;;5002848;28;20097;-65
2023/07/14 11:43:44;;;;;;;2.20;2.00;;;27.20;98.10;;;;;;4992026;28;20129;-65
2023/07/14 11:46:19;;;;;;;2.55;1.80;;;27.10;97.00;;;;;;5002910;28;20637;-65
2023/07/14 11:48:53;;;;;;;3.72;2.50;;;27.10;98.20;;;;;;4996708;28;20039;-65
2023/07/14 11:51:47;;;;;;;3.33;2.08;;;27.20;99.60;;;;;;5001283;28;20042;-66
2023/07/14 11:54:40;;;;;;;2.50;2.00;;;27.30;98.80;;;;;;4990135;28;20097;-66
2023/07/14 11:57:16;;;;;;;2.92;1.88;;;27.40;98.90;;;;;;5005597;28;20070;-66
2023/07/14 11:59:57;;;;;;;3.25;2.30;;;27.50;97.70;;;;;;5002074;28;20057;-66
2023/07/14 12:02:38;;;;;;;3.10;1.92;;;27.50;97.70;;;;;;4990079;28;20137;-66
2023/07/14 12:05:13;;;;;;;4.22;3.05;;;27.50;98.90;;;;;;4988395;28;20045;-66
2023/07/14 12:08:21;;;;;;;4.50;2.47;;;27.70;99.40;;;;;;4999788;28;20038;-66
2023/07/14 12:10:58;;;;;;;5.25;2.75;;;28.10;99.30;;;;;;4992733;28;20491;-66
2023/07/14 12:13:37;;;;;;;3.90;2.28;;;28.30;98.50;;;;;;5008931;28;20104;-66
2023/07/14 12:16:18;;;;;;;2.65;2.05;;;28.50;97.90;;;;;;4985323;28;20108;-66
2023/07/14 12:18:56;;;;;;;4.00;2.25;;;28.60;96.60;;;;;;4988833;28;20038;-66
2023/07/14 12:21:45;;;;;;;5.25;2.10;;;28.50;96.70;;;;;;4989418;28;20057;-66
2023/07/14 12:24:18;;;;;;;3.30;2.63;;;28.30;95.70;;;;;;5004930;28;20041;-66
2023/07/14 12:26:58;;;;;;;2.35;2.05;;;28.20;95.40;;;;;;5002944;28;20038;-66
2023/07/14 12:29:30;;;;;;;2.47;2.05;;;28.10;97.00;;;;;;5000600;28;20053;-66
2023/07/14 12:31:57;;;;;;;4.90;2.05;;;28.20;95.50;;;;;;4971852;28;20033;-66
2023/07/14 12:47:17;;;;;;;2.97;2.00;;;28.30;95.00;;;;;;4987274;28;20602;-68
2023/07/14 12:49:50;;;;;;;2.92;1.75;;;28.10;94.80;;;;;;4980356;28;20057;-67
2023/07/14 12:52:33;;;;;;;3.38;2.00;;;28.00;95.50;;;;;;4992115;28;20050;-66
2023/07/14 12:55:12;;;;;;;4.38;2.10;;;28.00;95.40;;;;;;4996556;28;20100;-66
2023/07/14 12:57:47;;;;;;;3.58;2.08;;;28.10;96.30;;;;;;4997036;28;20077;-66
2023/07/14 13:00:21;;;;;;;3.22;1.92;;;28.10;96.60;;;;;;4999387;28;20038;-66
2023/07/14 13:02:49;;;;;;;5.15;2.30;;;28.00;96.10;;;;;;4991041;28;20040;-66
2023/07/14 13:05:25;;;;;;;3.67;2.00;;;28.00;95.90;;;;;;5004242;28;20088;-66
2023/07/14 13:07:57;;;;;;;3.05;2.10;;;28.00;96.60;;;;;;5008847;28;20041;-66
2023/07/14 13:10:42;;;;;;;4.13;2.20;;;28.00;95.00;;;;;;5003049;28;20500;-66
2023/07/14 13:13:20;;;;;;;3.75;2.03;;;27.90;96.30;;;;;;4981999;28;20053;-66
2023/07/14 13:15:58;;;;;;;2.63;2.30;;;27.80;96.10;;;;;;4981097;28;20050;-66
2023/07/14 13:18:33;;;;;;;5.93;2.08;;;27.90;95.80;;;;;;4999588;28;20046;-66
2023/07/14 13:21:40;;;;;;;3.08;1.98;;;27.90;95.90;;;;;;4988347;28;20030;-66
2023/07/14 13:24:23;;;;;;;7.35;2.20;;;27.80;96.80;;;;;;4996682;28;20054;-66
2023/07/14 13:26:55;;;;;;;4.07;2.13;;;27.70;95.70;;;;;;5002407;28;20038;-66
2023/07/14 13:29:27;;;;;;;3.38;2.30;;;27.70;95.70;;;;;;5001101;28;20568;-66
2023/07/14 13:31:56;;;;;;;;;;;27.70;95.80;;;;;;4999842;28;20176;-67
2023/07/14 13:34:32;;;;;;;;;;;27.60;95.40;;;;;;5001190;28;19925;-66
2023/07/14 13:37:04;;;;;;;4.13;3.35;;;27.60;95.20;;;;;;4998402;28;19921;-65
2023/07/14 13:39:37;;;;;;;;;;;27.50;95.80;;;;;;4991979;28;20042;-65
2023/07/14 13:42:34;;;;;;;2.50;2.10;;;27.50;96.30;;;;;;4978685;28;20350;-65
2023/07/14 13:45:14;;;;;;;4.18;2.40;;;27.50;96.30;;;;;;4983079;28;20740;-65